Oglesby, Texas
Current Conditions -  °F | °C
As of 8:35 PM on Wednesday 17 Dec 2014 (Local Time) from KPWG Reporting Station
Overcast Overcast  
Wind Chill: 48°   Ceiling: 1800
Heat Index: 48°   Visibility: 10mi
Dew Point: 39°   Wind: 3mph
Humidity: 71%   Direction: 20°NNE
Pressure: 30.14"   Gusts: NA
Location:  31.42°N, 97.51°W
Report Text: KPWG 180235Z AUTO 02003KT 10SM OVC018 09/04 A3014 RMK AO1
Loading
Personal Weather Stations






























Interactive Weather Map New forecast layout! Learn more

10-Day Weather Forecast

Advertisements
Track Severe Weather on mobile